createdAt,value
2023-03-31T00:01:25.893Z,10.50
2023-03-31T00:04:02.120Z,10.50
2023-03-31T00:06:30.985Z,10.50
2023-03-31T00:09:01.954Z,10.50
2023-03-31T00:11:31.400Z,10.50
2023-03-31T00:13:59.391Z,10.50
2023-03-31T00:16:27.659Z,10.50
2023-03-31T00:18:55.646Z,10.50
2023-03-31T00:21:28.928Z,10.40
2023-03-31T00:23:58.674Z,10.30
2023-03-31T00:26:27.991Z,10.30
2023-03-31T00:28:57.806Z,10.30
2023-03-31T00:31:27.135Z,10.20
2023-03-31T00:33:55.760Z,10.10
2023-03-31T00:36:27.420Z,10.10
2023-03-31T00:38:56.362Z,10.00
2023-03-31T00:41:24.375Z,10.00
2023-03-31T00:44:13.215Z,10.00
2023-03-31T00:46:45.208Z,9.90
2023-03-31T00:49:20.890Z,9.90
2023-03-31T00:51:52.354Z,9.90
2023-03-31T00:54:21.562Z,9.90
2023-03-31T00:56:55.484Z,9.90
2023-03-31T00:59:29.020Z,9.90
2023-03-31T01:02:02.777Z,10.00
2023-03-31T01:04:34.399Z,10.00
2023-03-31T01:07:09.278Z,10.00
2023-03-31T01:09:38.868Z,10.00
2023-03-31T01:12:10.476Z,10.00
2023-03-31T01:14:39.855Z,10.10
2023-03-31T01:17:09.711Z,10.10
2023-03-31T01:19:54.520Z,10.10
2023-03-31T01:23:05.489Z,10.10
2023-03-31T01:26:02.504Z,10.10
2023-03-31T01:28:37.363Z,10.10
2023-03-31T01:31:43.360Z,10.10
2023-03-31T01:34:48.990Z,10.20
2023-03-31T01:37:38.845Z,10.20
2023-03-31T01:40:26.161Z,10.10
2023-03-31T01:42:58.543Z,10.10
2023-03-31T01:45:37.283Z,10.10
2023-03-31T01:48:13.018Z,10.10
2023-03-31T01:50:47.504Z,10.10
2023-03-31T01:53:21.742Z,10.10
2023-03-31T01:56:00.194Z,10.10
2023-03-31T01:58:33.857Z,10.10
2023-03-31T02:01:07.378Z,10.10
2023-03-31T02:03:41.164Z,10.10
2023-03-31T02:06:13.756Z,10.10
2023-03-31T02:08:45.020Z,10.10
2023-03-31T02:11:15.500Z,10.10
2023-03-31T02:13:46.919Z,10.10
2023-03-31T02:16:22.124Z,10.00
2023-03-31T02:18:52.981Z,10.00
2023-03-31T02:21:22.810Z,10.00
2023-03-31T02:23:52.712Z,10.00
2023-03-31T02:26:25.866Z,10.00
2023-03-31T02:28:53.837Z,10.00
2023-03-31T02:31:30.209Z,9.90
2023-03-31T02:33:58.251Z,9.80
2023-03-31T02:36:26.501Z,9.90
2023-03-31T02:38:59.269Z,9.90
2023-03-31T02:41:28.921Z,9.90
2023-03-31T02:43:57.157Z,9.90
2023-03-31T02:46:25.912Z,9.90
2023-03-31T02:48:56.618Z,9.90
2023-03-31T02:51:56.407Z,9.90
2023-03-31T02:54:44.540Z,9.90
2023-03-31T02:57:29.034Z,9.90
2023-03-31T03:00:09.485Z,9.90
2023-03-31T03:02:52.561Z,9.90
2023-03-31T03:05:29.142Z,9.90
2023-03-31T03:08:02.548Z,9.90
2023-03-31T03:10:39.821Z,9.90
2023-03-31T03:13:17.885Z,9.90
2023-03-31T03:15:49.111Z,9.90
2023-03-31T03:18:17.119Z,9.90
2023-03-31T03:20:48.589Z,9.90
2023-03-31T03:23:16.875Z,9.90
2023-03-31T03:25:46.091Z,9.90
2023-03-31T03:28:15.492Z,9.80
2023-03-31T03:30:43.442Z,9.90
2023-03-31T03:33:17.066Z,9.90
2023-03-31T03:35:45.344Z,9.90
2023-03-31T03:38:13.360Z,9.90
2023-03-31T03:40:41.287Z,9.90
2023-03-31T03:43:09.260Z,9.90
2023-03-31T03:45:38.576Z,9.80
2023-03-31T03:48:07.194Z,9.90
2023-03-31T03:50:38.042Z,9.90
2023-03-31T03:53:06.045Z,9.90
2023-03-31T03:55:34.160Z,9.90
2023-03-31T03:58:02.275Z,10.00
2023-03-31T04:00:30.308Z,10.00
2023-03-31T04:02:59.677Z,10.00
2023-03-31T04:05:27.674Z,10.00
2023-03-31T04:07:55.716Z,10.00
2023-03-31T04:10:23.701Z,9.90
2023-03-31T04:12:51.689Z,9.90
2023-03-31T04:15:19.662Z,9.80
2023-03-31T04:17:50.779Z,9.80
2023-03-31T04:20:20.346Z,9.80
2023-03-31T04:22:50.719Z,9.80
2023-03-31T04:25:19.011Z,9.80
2023-03-31T04:27:50.653Z,9.80
2023-03-31T04:30:23.605Z,9.70
2023-03-31T04:32:53.432Z,9.70
2023-03-31T04:35:24.407Z,9.70
2023-03-31T04:37:58.807Z,9.70
2023-03-31T04:40:27.049Z,9.80
2023-03-31T04:42:54.982Z,9.80
2023-03-31T04:45:22.967Z,9.80
2023-03-31T04:47:51.021Z,9.90
2023-03-31T04:50:19.175Z,9.80
2023-03-31T04:52:48.468Z,9.90
2023-03-31T04:55:16.628Z,9.90
2023-03-31T04:57:44.544Z,9.90
2023-03-31T05:00:13.802Z,9.90
2023-03-31T05:02:41.800Z,9.90
2023-03-31T05:05:10.665Z,9.90
2023-03-31T05:07:38.643Z,9.90
2023-03-31T05:10:09.213Z,9.80
2023-03-31T05:12:37.268Z,9.80
2023-03-31T05:15:06.590Z,9.80
2023-03-31T05:17:35.843Z,9.80
2023-03-31T05:20:06.194Z,9.80
2023-03-31T05:22:36.623Z,9.70
2023-03-31T05:25:05.656Z,9.70
2023-03-31T05:27:35.595Z,9.80
2023-03-31T05:30:03.620Z,9.80
2023-03-31T05:32:31.628Z,9.80
2023-03-31T05:34:59.646Z,9.80
2023-03-31T05:37:28.111Z,9.80
2023-03-31T05:39:56.058Z,9.80
2023-03-31T05:42:24.174Z,9.80
2023-03-31T05:44:53.530Z,9.80
2023-03-31T05:47:23.215Z,9.80
2023-03-31T05:49:51.166Z,9.80
2023-03-31T05:52:19.264Z,9.80
2023-03-31T05:54:47.260Z,9.80
2023-03-31T05:57:15.580Z,9.80
2023-03-31T05:59:43.526Z,9.90
2023-03-31T06:02:14.922Z,9.80
2023-03-31T06:04:43.742Z,9.90
2023-03-31T06:07:11.774Z,9.90
2023-03-31T06:09:39.685Z,9.80
2023-03-31T06:12:08.491Z,9.90
2023-03-31T06:14:36.428Z,9.90
2023-03-31T06:17:04.482Z,9.80
2023-03-31T06:19:33.754Z,9.90
2023-03-31T06:22:01.808Z,9.80
2023-03-31T06:24:29.745Z,9.80
2023-03-31T06:26:57.700Z,9.80
2023-03-31T06:29:25.691Z,9.80
2023-03-31T06:31:53.794Z,9.80
2023-03-31T06:34:23.113Z,9.80
2023-03-31T06:36:53.387Z,9.80
2023-03-31T06:39:21.655Z,9.80
2023-03-31T06:41:49.648Z,9.70
2023-03-31T06:44:19.307Z,9.70
2023-03-31T06:46:47.303Z,9.70
2023-03-31T06:49:15.359Z,9.70
2023-03-31T06:51:43.413Z,9.70
2023-03-31T06:54:12.791Z,9.70
2023-03-31T06:56:40.774Z,9.70
2023-03-31T06:59:08.703Z,9.70
2023-03-31T07:01:39.066Z,9.70
2023-03-31T07:04:07.306Z,9.60
2023-03-31T07:06:36.063Z,9.60
2023-03-31T07:09:04.516Z,9.60
2023-03-31T07:11:33.939Z,9.60
2023-03-31T07:14:01.901Z,9.60
2023-03-31T07:16:30.095Z,9.60
2023-03-31T07:18:59.548Z,9.60
2023-03-31T07:21:27.586Z,9.70
2023-03-31T07:23:55.517Z,9.70
2023-03-31T07:26:24.295Z,9.70
2023-03-31T07:28:56.561Z,9.70
2023-03-31T07:31:24.844Z,9.70
2023-03-31T07:33:52.827Z,9.70
2023-03-31T07:36:21.373Z,9.50
2023-03-31T07:38:49.811Z,9.60
2023-03-31T07:41:19.976Z,9.60
2023-03-31T07:43:48.779Z,9.60
2023-03-31T07:46:20.710Z,9.60
2023-03-31T07:48:49.688Z,9.60
2023-03-31T07:51:19.589Z,9.60
2023-03-31T07:53:49.333Z,9.50
2023-03-31T07:56:17.986Z,9.50
2023-03-31T07:58:46.986Z,9.40
2023-03-31T08:01:17.070Z,9.40
2023-03-31T08:03:47.705Z,9.50
2023-03-31T08:06:19.740Z,9.40
2023-03-31T08:08:47.984Z,9.40
2023-03-31T08:11:16.329Z,9.50
2023-03-31T08:13:44.299Z,9.50
2023-03-31T08:16:12.310Z,9.60
2023-03-31T08:18:40.278Z,9.60
2023-03-31T08:21:10.746Z,9.60
2023-03-31T08:23:38.744Z,9.70
2023-03-31T08:26:12.555Z,9.70
2023-03-31T08:28:41.600Z,9.70
2023-03-31T08:31:10.738Z,9.80
2023-03-31T08:33:39.051Z,9.80
2023-03-31T08:36:11.030Z,9.90
2023-03-31T08:38:41.764Z,9.90
2023-03-31T08:41:42.818Z,9.90
2023-03-31T08:44:16.440Z,9.90
2023-03-31T08:46:44.622Z,10.00
2023-03-31T08:49:16.521Z,10.10
2023-03-31T08:51:50.141Z,10.20
2023-03-31T08:54:27.262Z,10.30
2023-03-31T08:56:55.442Z,10.40
2023-03-31T08:59:31.396Z,10.50
2023-03-31T09:02:07.070Z,10.70
2023-03-31T09:05:06.859Z,10.70
2023-03-31T09:07:44.750Z,10.90
2023-03-31T09:10:29.588Z,10.90
2023-03-31T09:13:02.371Z,10.90
2023-03-31T09:15:35.762Z,10.90
2023-03-31T09:18:11.962Z,10.90
2023-03-31T09:20:44.649Z,11.00
2023-03-31T09:23:25.978Z,11.20
2023-03-31T09:25:54.834Z,11.30
2023-03-31T09:28:28.215Z,11.50
2023-03-31T09:30:56.724Z,11.60
2023-03-31T09:33:32.101Z,11.50
2023-03-31T09:36:00.697Z,11.70
2023-03-31T09:38:31.233Z,11.90
2023-03-31T09:40:59.933Z,12.00
2023-03-31T09:43:29.714Z,12.10
2023-03-31T09:46:09.344Z,12.10
2023-03-31T09:48:39.890Z,12.00
2023-03-31T09:51:14.591Z,12.00
2023-03-31T09:53:49.949Z,12.00
2023-03-31T09:56:34.639Z,12.00
2023-03-31T09:59:03.805Z,12.30
2023-03-31T10:01:32.513Z,12.30
2023-03-31T10:04:00.554Z,12.30
2023-03-31T10:06:28.752Z,12.40
2023-03-31T10:09:00.856Z,12.50
2023-03-31T10:11:29.084Z,12.60
2023-03-31T10:14:04.626Z,13.00
2023-03-31T10:16:35.521Z,13.40
2023-03-31T10:19:21.401Z,13.60
2023-03-31T10:21:56.062Z,13.70
2023-03-31T10:24:27.715Z,14.00
2023-03-31T10:26:58.133Z,14.10
2023-03-31T10:29:32.401Z,14.10
2023-03-31T10:32:06.195Z,13.90
2023-03-31T10:34:35.014Z,13.80
2023-03-31T10:37:06.279Z,13.90
2023-03-31T10:39:35.701Z,13.80
2023-03-31T10:42:03.953Z,13.80
2023-03-31T10:44:34.718Z,13.70
2023-03-31T10:47:08.416Z,13.60
2023-03-31T10:49:40.892Z,13.50
2023-03-31T10:52:18.822Z,13.50
2023-03-31T10:54:56.471Z,13.60
2023-03-31T10:57:33.805Z,13.40
2023-03-31T11:00:17.595Z,13.50
2023-03-31T11:03:16.274Z,13.40
2023-03-31T11:05:50.882Z,13.50
2023-03-31T11:08:36.139Z,13.60
2023-03-31T11:11:38.881Z,13.70
2023-03-31T11:14:16.628Z,13.70
2023-03-31T11:16:50.336Z,13.80
2023-03-31T11:19:31.985Z,13.80
2023-03-31T11:22:09.765Z,14.00
2023-03-31T11:25:02.513Z,14.00
2023-03-31T11:27:43.839Z,13.80
2023-03-31T11:30:24.261Z,13.70
2023-03-31T11:33:03.889Z,13.60
2023-03-31T11:35:45.386Z,13.50
2023-03-31T11:38:33.529Z,13.40
2023-03-31T11:41:06.776Z,13.50
2023-03-31T11:43:41.096Z,13.50
2023-03-31T11:46:14.597Z,13.50
2023-03-31T11:48:47.295Z,13.70
2023-03-31T11:51:19.138Z,13.90
2023-03-31T11:53:49.390Z,14.10
2023-03-31T11:56:19.838Z,14.20
2023-03-31T11:58:56.135Z,14.10
2023-03-31T12:01:29.167Z,13.80
2023-03-31T12:04:03.716Z,13.70
2023-03-31T12:06:34.837Z,13.90
2023-03-31T12:09:14.121Z,14.20
2023-03-31T12:11:46.703Z,14.70
2023-03-31T12:14:28.169Z,15.10
2023-03-31T12:17:01.119Z,15.30
2023-03-31T12:19:35.080Z,15.40
2023-03-31T12:22:11.283Z,15.40
2023-03-31T12:24:39.311Z,15.40
2023-03-31T12:27:14.134Z,15.50
2023-03-31T12:29:46.208Z,15.60
2023-03-31T12:32:18.791Z,15.50
2023-03-31T12:34:52.628Z,15.50
2023-03-31T12:38:01.392Z,15.50
2023-03-31T12:40:41.113Z,15.60
2023-03-31T12:43:32.776Z,15.50
2023-03-31T12:46:18.110Z,15.50
2023-03-31T12:49:01.107Z,15.30
2023-03-31T12:51:56.203Z,15.00
2023-03-31T12:54:52.560Z,14.50
2023-03-31T12:57:23.559Z,13.70
2023-03-31T13:00:25.515Z,13.20
2023-03-31T13:03:34.996Z,13.10
2023-03-31T13:06:04.044Z,13.00
2023-03-31T13:08:55.988Z,12.90
2023-03-31T13:11:36.716Z,12.90
2023-03-31T13:14:07.331Z,12.90
2023-03-31T13:16:36.900Z,12.90
2023-03-31T13:19:06.321Z,12.90
2023-03-31T13:21:53.943Z,12.90
2023-03-31T13:24:24.039Z,12.80
2023-03-31T13:26:54.873Z,12.70
2023-03-31T13:29:26.400Z,12.90
2023-03-31T13:32:11.076Z,13.00
2023-03-31T13:34:44.814Z,13.10
2023-03-31T13:37:22.522Z,13.30
2023-03-31T13:40:21.690Z,13.30
2023-03-31T13:43:13.689Z,13.40
2023-03-31T13:45:55.523Z,13.40
2023-03-31T13:48:38.281Z,13.40
2023-03-31T13:51:31.834Z,13.40
2023-03-31T13:54:36.743Z,13.30
2023-03-31T13:57:47.952Z,13.30
2023-03-31T14:00:36.335Z,13.10
2023-03-31T14:03:19.109Z,12.90
2023-03-31T14:05:51.282Z,12.70
2023-03-31T14:08:27.431Z,12.60
2023-03-31T14:10:55.526Z,12.60
2023-03-31T14:13:26.617Z,12.50
2023-03-31T14:15:57.243Z,12.60
2023-03-31T14:18:28.197Z,12.50
2023-03-31T14:21:08.046Z,12.50
2023-03-31T14:23:48.767Z,12.50
2023-03-31T14:26:28.505Z,12.40
2023-03-31T14:29:13.681Z,12.40
2023-03-31T14:31:50.675Z,12.40
2023-03-31T14:34:45.579Z,12.40
2023-03-31T14:37:17.638Z,12.40
2023-03-31T14:39:49.716Z,12.40
2023-03-31T14:42:19.431Z,12.30
2023-03-31T14:44:48.851Z,12.40
2023-03-31T14:47:21.334Z,12.30
2023-03-31T14:49:59.670Z,12.30
2023-03-31T14:52:31.416Z,12.30
2023-03-31T14:55:01.395Z,12.30
2023-03-31T14:57:32.607Z,12.40
2023-03-31T15:00:05.153Z,12.30
2023-03-31T15:02:35.817Z,12.20
2023-03-31T15:05:07.568Z,12.10
2023-03-31T15:07:36.274Z,12.10
2023-03-31T15:10:07.647Z,12.10
2023-03-31T15:12:38.240Z,12.00
2023-03-31T15:15:08.242Z,12.00
2023-03-31T15:17:40.553Z,12.00
2023-03-31T15:20:28.425Z,11.90
2023-03-31T15:22:57.216Z,11.90
2023-03-31T15:25:30.862Z,11.90
2023-03-31T15:28:03.231Z,11.90
2023-03-31T15:30:31.646Z,12.00
2023-03-31T15:33:11.779Z,11.90
2023-03-31T15:35:43.920Z,12.00
2023-03-31T15:38:16.311Z,12.00
2023-03-31T15:40:49.623Z,12.00
2023-03-31T15:43:25.863Z,12.00
2023-03-31T15:45:55.533Z,12.10
2023-03-31T15:48:28.344Z,12.20
2023-03-31T15:51:02.573Z,12.00
2023-03-31T15:53:36.076Z,11.90
2023-03-31T15:56:06.792Z,12.00
2023-03-31T15:58:57.801Z,12.00
2023-03-31T16:01:32.819Z,12.00
2023-03-31T16:04:02.535Z,11.90
2023-03-31T16:06:43.336Z,11.80
2023-03-31T16:09:15.168Z,11.90
2023-03-31T16:11:47.890Z,12.00
2023-03-31T16:14:20.588Z,11.90
2023-03-31T16:16:53.771Z,11.90
2023-03-31T16:19:24.341Z,11.90
2023-03-31T16:21:56.154Z,11.70
2023-03-31T16:24:32.386Z,11.60
2023-03-31T16:27:06.457Z,11.40
2023-03-31T16:29:35.942Z,11.40
2023-03-31T16:32:12.932Z,11.40
2023-03-31T16:34:54.610Z,11.50
2023-03-31T16:37:23.163Z,11.50
2023-03-31T16:39:51.842Z,11.50
2023-03-31T16:42:21.943Z,11.60
2023-03-31T16:44:59.921Z,11.60
2023-03-31T16:47:38.217Z,11.60
2023-03-31T16:50:08.413Z,11.50
2023-03-31T16:52:37.137Z,11.50
2023-03-31T16:55:05.723Z,11.50
2023-03-31T16:57:35.209Z,11.50
2023-03-31T17:00:03.592Z,11.30
2023-03-31T17:02:32.051Z,11.30
2023-03-31T17:05:12.002Z,11.20
2023-03-31T17:07:41.321Z,11.20
2023-03-31T17:10:10.671Z,11.10
2023-03-31T17:12:40.018Z,11.10
2023-03-31T17:15:09.646Z,11.00
2023-03-31T17:17:37.751Z,11.00
2023-03-31T17:20:06.795Z,11.00
2023-03-31T17:22:34.774Z,10.90
2023-03-31T17:25:03.229Z,11.00
2023-03-31T17:27:32.156Z,11.00
2023-03-31T17:30:02.612Z,11.00
2023-03-31T17:32:31.112Z,11.00
2023-03-31T17:34:59.252Z,10.90
2023-03-31T17:37:27.242Z,10.90
2023-03-31T17:39:55.764Z,10.90
2023-03-31T17:42:23.706Z,10.80
2023-03-31T17:44:53.285Z,10.80
2023-03-31T17:47:22.585Z,10.80
2023-03-31T17:49:50.544Z,10.80
2023-03-31T17:52:18.486Z,10.80
2023-03-31T17:54:47.978Z,10.80
2023-03-31T17:57:17.799Z,10.70
2023-03-31T17:59:46.735Z,10.80
2023-03-31T18:02:15.527Z,10.70
2023-03-31T18:04:44.961Z,10.70
2023-03-31T18:07:12.985Z,10.70
2023-03-31T18:09:40.926Z,10.70
2023-03-31T18:12:09.674Z,10.60
2023-03-31T18:14:38.284Z,10.70
2023-03-31T18:17:06.744Z,10.70
2023-03-31T18:19:34.857Z,10.60
2023-03-31T18:22:04.297Z,10.50
2023-03-31T18:24:32.466Z,10.60
2023-03-31T18:27:00.586Z,10.50
2023-03-31T18:29:28.810Z,10.50
2023-03-31T18:31:57.074Z,10.50
2023-03-31T18:34:25.177Z,10.60
2023-03-31T18:36:53.758Z,10.50
2023-03-31T18:39:23.270Z,10.50
2023-03-31T18:41:53.443Z,10.50
2023-03-31T18:44:21.800Z,10.40
2023-03-31T18:46:49.932Z,10.50
2023-03-31T18:49:20.146Z,10.40
2023-03-31T18:51:48.563Z,10.40
2023-03-31T18:54:16.977Z,10.40
2023-03-31T18:56:46.645Z,10.30
2023-03-31T18:59:14.611Z,10.30
2023-03-31T19:01:42.622Z,10.30
2023-03-31T19:04:11.969Z,10.30
2023-03-31T19:06:39.965Z,10.30
2023-03-31T19:09:08.041Z,10.30
2023-03-31T19:11:36.249Z,10.30
2023-03-31T19:14:05.714Z,10.30
2023-03-31T19:16:41.530Z,10.30
2023-03-31T19:19:10.212Z,10.30
2023-03-31T19:21:38.624Z,10.30
2023-03-31T19:24:09.186Z,10.30
2023-03-31T19:26:37.259Z,10.30
2023-03-31T19:29:07.544Z,10.30
2023-03-31T19:31:38.548Z,10.20
2023-03-31T19:34:07.813Z,10.30
2023-03-31T19:36:36.268Z,10.20
2023-03-31T19:39:06.317Z,10.20
2023-03-31T19:41:34.410Z,10.20
2023-03-31T19:44:04.955Z,10.20
2023-03-31T19:46:34.815Z,10.10
2023-03-31T19:49:02.903Z,10.10
2023-03-31T19:51:31.453Z,10.10
2023-03-31T19:54:00.043Z,10.10
2023-03-31T19:56:28.571Z,10.00
2023-03-31T19:58:56.904Z,10.00
2023-03-31T20:01:27.384Z,10.00
2023-03-31T20:03:57.306Z,10.00
2023-03-31T20:06:27.278Z,10.00
2023-03-31T20:08:57.317Z,9.90
2023-03-31T20:11:26.337Z,10.00
2023-03-31T20:13:55.201Z,10.00
2023-03-31T20:16:25.704Z,10.00
2023-03-31T20:18:55.255Z,10.00
2023-03-31T20:21:26.112Z,9.90
2023-03-31T20:23:54.954Z,9.90
2023-03-31T20:26:26.273Z,9.90
2023-03-31T20:28:55.936Z,9.80
2023-03-31T20:31:25.948Z,9.80
2023-03-31T20:33:54.612Z,9.80
2023-03-31T20:36:25.342Z,9.80
2023-03-31T20:38:54.792Z,9.80
2023-03-31T20:41:26.308Z,9.90
2023-03-31T20:43:54.828Z,9.80
2023-03-31T20:46:23.579Z,9.80
2023-03-31T20:48:55.018Z,9.80
2023-03-31T20:51:26.602Z,9.80
2023-03-31T20:53:56.342Z,9.80
2023-03-31T20:56:26.596Z,9.70
2023-03-31T20:58:57.723Z,9.70
2023-03-31T21:01:27.372Z,9.70
2023-03-31T21:03:59.046Z,9.80
2023-03-31T21:06:29.807Z,9.80
2023-03-31T21:08:58.476Z,9.80
2023-03-31T21:11:27.444Z,9.80
2023-03-31T21:13:55.800Z,9.80
2023-03-31T21:16:24.015Z,9.70
2023-03-31T21:18:54.918Z,9.70
2023-03-31T21:21:24.712Z,9.80
2023-03-31T21:23:54.698Z,9.80
2023-03-31T21:26:24.878Z,9.70
2023-03-31T21:28:54.827Z,9.70
2023-03-31T21:31:24.393Z,9.80
2023-03-31T21:33:53.735Z,9.80
2023-03-31T21:36:23.339Z,9.80
2023-03-31T21:38:53.394Z,9.70
2023-03-31T21:41:24.552Z,9.80
2023-03-31T21:43:53.551Z,9.80
2023-03-31T21:46:24.010Z,9.70
2023-03-31T21:48:52.100Z,9.70
2023-03-31T21:51:22.112Z,9.70
2023-03-31T21:53:50.367Z,9.70
2023-03-31T21:56:18.307Z,9.70
2023-03-31T21:58:47.629Z,9.70
2023-03-31T22:01:15.904Z,9.70
2023-03-31T22:03:44.018Z,9.70
2023-03-31T22:06:12.479Z,9.60
2023-03-31T22:08:41.378Z,9.70
2023-03-31T22:11:11.666Z,9.70
2023-03-31T22:13:40.093Z,9.70
2023-03-31T22:16:17.905Z,9.70
2023-03-31T22:18:47.060Z,9.60
2023-03-31T22:21:17.054Z,9.70
2023-03-31T22:23:45.439Z,9.70
2023-03-31T22:26:13.418Z,9.60
2023-03-31T22:28:41.487Z,9.60
2023-03-31T22:31:09.516Z,9.70
2023-03-31T22:33:39.022Z,9.60
2023-03-31T22:36:07.497Z,9.60
2023-03-31T22:38:35.568Z,9.70
2023-03-31T22:41:03.581Z,9.70
2023-03-31T22:43:32.428Z,9.70
2023-03-31T22:46:03.894Z,9.70
2023-03-31T22:48:32.002Z,9.70
2023-03-31T22:51:03.578Z,9.70
2023-03-31T22:53:32.086Z,9.70
2023-03-31T22:56:05.325Z,9.60
2023-03-31T22:58:33.658Z,9.60
2023-03-31T23:01:02.151Z,9.60
2023-03-31T23:03:30.639Z,9.60
2023-03-31T23:05:58.826Z,9.60
2023-03-31T23:08:28.185Z,9.60
2023-03-31T23:10:57.685Z,9.60
2023-03-31T23:13:26.676Z,9.50
2023-03-31T23:15:55.523Z,9.60
2023-03-31T23:18:23.801Z,9.60
2023-03-31T23:20:52.362Z,9.60
2023-03-31T23:23:20.397Z,9.50
2023-03-31T23:25:49.701Z,9.50
2023-03-31T23:28:17.732Z,9.50
2023-03-31T23:30:53.926Z,9.50
2023-03-31T23:33:22.008Z,9.50
2023-03-31T23:35:50.133Z,9.50
2023-03-31T23:38:18.185Z,9.50
2023-03-31T23:40:46.422Z,9.40
2023-03-31T23:43:16.376Z,9.40
2023-03-31T23:45:44.687Z,9.40
2023-03-31T23:48:12.708Z,9.40
2023-03-31T23:50:40.725Z,9.40
2023-03-31T23:53:08.715Z,9.40
2023-03-31T23:55:37.979Z,9.50
2023-03-31T23:58:06.816Z,9.40
